This is the latest recevied weather packets stored in our database for station/object MM9SQL. If no packets are shown the sender has not sent any weather packets the latest 10 day(s).
| Time | Temp. | Humidity | Pressure | Rain* | Wind** | Luminosity | Snow |
|---|---|---|---|---|---|---|---|
| 1778279430 | 7.78° C | 70% | 1021.4 hPa | 0 mm | - | - | - |
| 1778277305 | 7.78° C | 71% | 1021.3 hPa | 0 mm | - | - | - |
| 1778274604 | 8.33° C | 70% | 1020.8 hPa | 0 mm | - | - | - |
| 1778273705 | 8.89° C | 69% | 1020.5 hPa | 0 mm | - | - | - |
| 1778273402 | 8.89° C | 69% | 1020.5 hPa | 0 mm | - | - | - |
| 1778273110 | 8.89° C | 68% | 1020.5 hPa | 0 mm | - | - | - |
| 1778271313 | 9.44° C | 65% | 1020.1 hPa | 0 mm | - | - | - |
| 1778271006 | 9.44° C | 64% | 1020.1 hPa | 0 mm | - | - | - |
| 1778269504 | 10.56° C | 63% | 1019.6 hPa | 0 mm | - | - | - |
| 1778267105 | 11.11° C | 60% | 1018.9 hPa | 0 mm | - | - | - |
| 1778266508 | 11.11° C | 60% | 1018.7 hPa | 0 mm | - | - | - |
| 1778265302 | 12.22° C | 55% | 1018.5 hPa | 0 mm | - | - | - |
| 1778265004 | 12.78° C | 54% | 1018.3 hPa | 0 mm | - | - | - |
| 1778264406 | 12.22° C | 54% | 1018.2 hPa | 0 mm | - | - | - |
| 1778263802 | 12.22° C | 55% | 1018 hPa | 0 mm | - | - | - |
| 1778261420 | 12.22° C | 56% | 1017.4 hPa | 0 mm | - | - | - |
| 1778261106 | 12.22° C | 57% | 1017.4 hPa | 0 mm | - | - | - |
| 1778260203 | 12.78° C | 58% | 1017.2 hPa | 0 mm | - | - | - |
| 1778259303 | 12.78° C | 59% | 1016.8 hPa | 0 mm | - | - | - |
| 1778257511 | 12.78° C | 58% | 1016.5 hPa | 0 mm | - | - | - |
| 1778256920 | 12.22° C | 59% | 1016.5 hPa | 0 mm | - | - | - |
| 1778255704 | 13.33° C | 58% | 1016.4 hPa | 0 mm | - | - | - |
| 1778254503 | 13.33° C | 59% | 1016 hPa | 0 mm | - | - | - |
| 1778254210 | 13.89° C | 57% | 1016 hPa | 0 mm | - | - | - |
| 1778253909 | 13.89° C | 58% | 1015.9 hPa | 0 mm | - | - | - |
* Rain latest hour (hover to see other rain measurements)
** Current wind speed in m/s (hover to see current wind gust speed)